Bujaru, Brazil
Current Conditions -  °F | °C
As of 11:00 PM on Tuesday 21 Oct 2014 (Local Time) from SBBE Reporting Station
Scattered Clouds Scattered Clouds  
Wind Chill: 79°   Ceiling: Unl
Heat Index: 82°   Visibility: 6mi
Dew Point: 73°   Wind: 6mph
Humidity: 83%   Direction: 70°ENE
Pressure: 29.88"   Gusts: NA
Location:  1.52°S, 48.01°W
Report Text: SBBE 220200Z 07005KT 9999 FEW030 SCT070 26/23 Q1012
Loading
Personal Weather Stations






























Interactive Weather Map
Tropical Storm Tracking
New forecast layout! Learn more

10-Day Weather Forecast

Advertisements
Track Severe Weather on mobile